Time;durP1;ratioP1;P1;durP2;ratioP2;P2;SDS_P1;SDS_P2;PMS_P1;PMS_P2;Temp;Humidity;BMP_temperature;BMP_pressure;BME280_temperature;BME280_humidity;BME280_pressure;Samples;Min_cycle;Max_cycle;Signal;HPM_P1;HPM_P2
2022/01/02 00:02:28;;;;;;;239.55;98.38;;;8.90;99.90;;;;;;5074238;28;20194;-86
2022/01/02 00:05:05;;;;;;;229.15;88.82;;;8.70;99.90;;;;;;5074392;28;20032;-87
2022/01/02 00:07:35;;;;;;;201.93;80.60;;;8.70;99.90;;;;;;5074026;28;20059;-87
2022/01/02 00:10:05;;;;;;;192.20;76.40;;;8.70;99.90;;;;;;5073968;28;20483;-87
2022/01/02 00:12:35;;;;;;;173.88;67.93;;;8.60;99.90;;;;;;5073887;28;20055;-87
2022/01/02 00:15:06;;;;;;;160.25;66.03;;;8.60;99.90;;;;;;5073951;28;20050;-86
2022/01/02 00:17:33;;;;;;;164.60;67.18;;;8.50;99.90;;;;;;5073982;28;20070;-87
2022/01/02 00:20:09;;;;;;;166.30;66.85;;;8.50;99.90;;;;;;5074549;28;20028;-87
2022/01/02 00:22:37;;;;;;;175.60;69.47;;;8.50;99.90;;;;;;5073283;28;20017;-87
2022/01/02 00:25:09;;;;;;;181.48;69.88;;;8.50;99.90;;;;;;5074759;28;20494;-87
2022/01/02 00:27:35;;;;;;;141.90;59.83;;;8.50;99.90;;;;;;5077518;28;20115;-87
2022/01/02 00:30:06;;;;;;;194.48;74.50;;;8.50;99.90;;;;;;5077974;28;20028;-87
2022/01/02 00:32:37;;;;;;;138.18;57.60;;;8.40;99.90;;;;;;5077629;28;20025;-87
2022/01/02 00:35:04;;;;;;;142.15;58.40;;;8.30;99.90;;;;;;5077431;28;20082;-87
2022/01/02 00:37:30;;;;;;;156.02;60.35;;;8.30;99.90;;;;;;5077458;28;20024;-87
2022/01/02 00:39:56;;;;;;;137.70;57.15;;;8.30;99.90;;;;;;5077484;28;20021;-87
2022/01/02 00:42:34;;;;;;;128.23;54.47;;;8.30;99.90;;;;;;5077696;28;20103;-87
2022/01/02 00:45:28;;;;;;;131.05;53.58;;;8.20;99.90;;;;;;5077159;28;20094;-87
2022/01/02 00:48:06;;;;;;;152.75;61.50;;;8.30;99.90;;;;;;5077256;28;20036;-87
2022/01/02 00:50:46;;;;;;;170.65;69.05;;;8.20;99.90;;;;;;5077286;28;20024;-87
2022/01/02 00:53:16;;;;;;;153.32;62.47;;;8.20;99.90;;;;;;5077311;28;20475;-87
2022/01/02 00:55:43;;;;;;;144.38;58.00;;;8.20;99.90;;;;;;5077222;28;20021;-87
2022/01/02 00:58:14;;;;;;;151.18;59.70;;;8.00;99.90;;;;;;5077270;28;20024;-87
2022/01/02 01:00:49;;;;;;;124.35;53.67;;;7.90;99.90;;;;;;5077071;28;20028;-87
2022/01/02 01:03:24;;;;;;;134.52;54.72;;;7.90;99.90;;;;;;5076987;28;20044;-86
2022/01/02 01:05:54;;;;;;;140.90;57.47;;;7.80;99.90;;;;;;5076884;28;20493;-87
2022/01/02 01:08:21;;;;;;;167.77;62.08;;;7.80;99.90;;;;;;5077014;28;20022;-87
2022/01/02 01:10:48;;;;;;;126.18;53.10;;;7.70;99.90;;;;;;5076881;28;20021;-87
2022/01/02 01:13:14;;;;;;;127.22;50.47;;;7.60;99.90;;;;;;5076943;28;20023;-87
2022/01/02 01:15:41;;;;;;;116.93;46.22;;;7.60;99.90;;;;;;5076815;28;20020;-86
2022/01/02 01:18:07;;;;;;;122.97;51.08;;;7.60;99.90;;;;;;5076607;28;20057;-87
2022/01/02 01:20:42;;;;;;;107.65;42.70;;;7.60;99.90;;;;;;5076664;28;20021;-86
2022/01/02 01:23:12;;;;;;;122.32;48.85;;;7.60;99.90;;;;;;5076798;28;20074;-86
2022/01/02 01:25:44;;;;;;;122.90;48.17;;;7.60;99.90;;;;;;5076089;28;20111;-87
2022/01/02 01:28:09;;;;;;;108.75;46.45;;;7.50;99.90;;;;;;5077194;28;20062;-87
2022/01/02 01:30:35;;;;;;;103.78;42.97;;;7.40;99.90;;;;;;5076464;28;20029;-87
2022/01/02 01:33:01;;;;;;;101.90;41.53;;;7.40;99.90;;;;;;5076142;28;20020;-87
2022/01/02 01:35:27;;;;;;;103.00;41.40;;;7.40;99.90;;;;;;5076567;28;20026;-87
2022/01/02 01:37:53;;;;;;;84.35;37.00;;;7.40;99.90;;;;;;5076196;28;20082;-87
2022/01/02 01:40:20;;;;;;;81.85;35.80;;;7.40;99.90;;;;;;5076511;28;20017;-87
2022/01/02 01:42:59;;;;;;;81.47;38.50;;;7.40;99.90;;;;;;5075988;28;20513;-87
2022/01/02 01:48:02;;;;;;;90.35;39.00;;;7.40;99.90;;;;;;5077977;28;20112;-87
2022/01/02 01:50:34;;;;;;;81.05;36.80;;;7.40;99.90;;;;;;5076640;28;20107;-83
2022/01/02 01:53:00;;;;;;;90.30;39.10;;;7.40;99.90;;;;;;5076145;28;20025;-87
2022/01/02 01:55:26;;;;;;;84.80;37.95;;;7.40;99.90;;;;;;5076099;28;20017;-87
2022/01/02 01:57:53;;;;;;;103.25;44.03;;;7.30;99.90;;;;;;5075840;28;20421;-87
2022/01/02 02:00:22;;;;;;;97.68;40.40;;;7.20;99.90;;;;;;5077003;28;20096;-87
2022/01/02 02:02:48;;;;;;;82.82;37.08;;;7.00;99.90;;;;;;5076371;28;20020;-87
2022/01/02 02:05:13;;;;;;;88.90;37.10;;;6.90;99.90;;;;;;5076070;28;20048;-87
2022/01/02 02:07:42;;;;;;;87.90;37.80;;;6.90;99.90;;;;;;5075205;28;20025;-87
2022/01/02 02:10:23;;;;;;;111.72;45.10;;;6.80;99.90;;;;;;5075683;28;20483;-87
2022/01/02 02:12:51;;;;;;;94.55;39.17;;;6.80;99.90;;;;;;5074956;28;20029;-87
2022/01/02 02:15:18;;;;;;;93.25;38.17;;;6.80;99.90;;;;;;5075656;28;20098;-87
2022/01/02 02:17:46;;;;;;;96.45;41.13;;;6.80;99.90;;;;;;5075745;28;20051;-87
2022/01/02 02:20:23;;;;;;;87.60;37.63;;;6.80;99.90;;;;;;5075642;28;20016;-86
2022/01/02 02:22:53;;;;;;;77.38;34.80;;;6.60;99.90;;;;;;5075536;28;20447;-87
2022/01/02 02:25:21;;;;;;;79.22;34.35;;;6.60;99.90;;;;;;5075475;28;20020;-87
2022/01/02 02:27:55;;;;;;;104.45;42.80;;;6.70;99.90;;;;;;5075241;28;20054;-87
2022/01/02 02:30:22;;;;;;;96.07;40.50;;;6.60;99.90;;;;;;5075300;28;20525;-87
2022/01/02 02:32:49;;;;;;;83.32;38.90;;;6.60;99.90;;;;;;5075579;28;20475;-87
2022/01/02 02:35:15;;;;;;;83.05;38.13;;;6.60;99.90;;;;;;5075164;28;20028;-87
2022/01/02 02:37:43;;;;;;;83.43;36.38;;;6.60;99.90;;;;;;5075284;28;20016;-87
2022/01/02 02:40:10;;;;;;;73.95;34.05;;;6.50;99.90;;;;;;5075077;28;20050;-86
2022/01/02 02:43:07;;;;;;;70.85;32.17;;;6.60;99.90;;;;;;5074829;28;20040;-87
2022/01/02 07:47:53;;;;;;;179.73;76.00;;;3.20;99.90;;;;;;5114193;27;20813;-87
2022/01/02 07:50:22;;;;;;;174.00;73.53;;;3.20;99.90;;;;;;5112124;28;20465;-87
2022/01/02 07:52:48;;;;;;;162.40;66.78;;;3.20;99.90;;;;;;5112321;28;20020;-87
2022/01/02 07:55:14;;;;;;;147.63;62.03;;;3.40;99.90;;;;;;5112188;28;20046;-87
2022/01/02 07:57:40;;;;;;;154.73;66.85;;;3.60;99.90;;;;;;5112073;28;20054;-87
2022/01/02 08:00:06;;;;;;;185.40;81.13;;;3.80;99.90;;;;;;5112084;28;20016;-87
2022/01/02 08:02:32;;;;;;;165.93;73.18;;;4.00;99.90;;;;;;5111704;28;20019;-87
2022/01/02 08:04:58;;;;;;;140.73;67.13;;;4.10;99.90;;;;;;5111848;28;20060;-87
2022/01/02 08:07:24;;;;;;;138.73;63.90;;;4.30;99.90;;;;;;5111140;28;20031;-88
2022/01/02 08:09:49;;;;;;;136.48;62.15;;;4.50;99.90;;;;;;5111960;28;20020;-88
2022/01/02 08:43:44;;;;;;;223.38;95.45;;;4.40;99.90;;;;;;5155516;27;20920;-87
2022/01/02 08:46:10;;;;;;;209.60;93.45;;;4.30;99.90;;;;;;5153506;27;20023;-88
2022/01/02 08:48:36;;;;;;;200.48;92.80;;;4.50;99.90;;;;;;5153423;27;20029;-88
2022/01/02 08:51:02;;;;;;;202.95;90.22;;;4.70;99.90;;;;;;5153806;27;20027;-88
2022/01/02 08:53:28;;;;;;;170.23;81.20;;;4.90;99.90;;;;;;5153480;27;20051;-88
2022/01/02 08:55:54;;;;;;;144.45;66.43;;;5.20;99.90;;;;;;5153834;27;20030;-87
2022/01/02 08:58:20;;;;;;;132.00;62.45;;;5.40;99.90;;;;;;5153924;27;20473;-88
2022/01/02 09:00:46;;;;;;;123.32;55.53;;;5.60;99.90;;;;;;5153066;27;20030;-88
2022/01/02 09:03:12;;;;;;;118.55;57.25;;;5.80;99.90;;;;;;5153165;27;20477;-88
2022/01/02 09:05:38;;;;;;;114.13;55.38;;;6.00;99.90;;;;;;5153163;27;20027;-87
2022/01/02 09:08:05;;;;;;;112.18;51.35;;;6.20;99.90;;;;;;5153259;27;20046;-88
2022/01/02 09:10:31;;;;;;;81.55;42.58;;;6.40;99.90;;;;;;5152208;27;20452;-87
2022/01/02 09:12:57;;;;;;;85.20;43.13;;;6.40;99.90;;;;;;5153124;27;20061;-87
2022/01/02 09:15:22;;;;;;;89.85;43.90;;;6.60;99.90;;;;;;5153112;27;20354;-87
2022/01/02 09:17:48;;;;;;;93.10;44.30;;;6.70;99.90;;;;;;5152814;27;20019;-87
2022/01/02 09:20:16;;;;;;;114.47;50.03;;;6.80;99.90;;;;;;5152990;27;20369;-87
2022/01/02 09:22:43;;;;;;;100.43;48.67;;;6.90;99.90;;;;;;5153352;27;20057;-88
2022/01/02 09:25:10;;;;;;;115.28;51.85;;;7.00;99.90;;;;;;5154202;27;20015;-88
2022/01/02 09:27:36;;;;;;;118.45;53.72;;;7.20;99.90;;;;;;5152747;27;20033;-88
2022/01/02 09:30:07;;;;;;;109.68;49.45;;;7.30;99.90;;;;;;5152794;27;20062;-87
2022/01/02 09:32:34;;;;;;;97.22;47.58;;;7.40;99.90;;;;;;5153874;27;20023;-88
2022/01/02 09:35:02;;;;;;;96.53;45.00;;;7.60;99.90;;;;;;5152634;27;20027;-88
2022/01/02 09:37:27;;;;;;;84.60;39.92;;;7.70;99.90;;;;;;5152655;27;20034;-87
2022/01/02 09:39:53;;;;;;;84.57;41.15;;;7.80;99.90;;;;;;5152563;27;20027;-88
2022/01/02 10:04:41;;;;;;;100.35;46.53;;;7.70;99.90;;;;;;5167816;27;20860;-88
2022/01/02 10:07:28;;;;;;;98.65;45.90;;;7.80;99.90;;;;;;5132845;27;20028;-88
2022/01/02 10:09:54;;;;;;;103.97;48.55;;;8.00;99.90;;;;;;5132877;28;20019;-88
2022/01/02 10:12:31;;;;;;;91.65;44.67;;;8.30;99.90;;;;;;5132654;27;20019;-88
2022/01/02 10:15:13;;;;;;;113.70;52.83;;;8.50;99.90;;;;;;5132437;27;20027;-86
2022/01/02 10:18:02;;;;;;;95.78;47.83;;;8.80;99.90;;;;;;5132696;27;20381;-86
2022/01/02 10:20:38;;;;;;;97.03;48.55;;;9.00;99.90;;;;;;5132455;27;20015;-86
2022/01/02 10:23:18;;;;;;;105.68;50.30;;;9.20;99.90;;;;;;5132502;27;20024;-86
2022/01/02 10:25:49;;;;;;;89.28;44.38;;;9.50;99.90;;;;;;5133469;27;20040;-86
2022/01/02 10:28:28;;;;;;;95.28;46.60;;;9.70;99.90;;;;;;5132489;27;20023;-86
2022/01/02 10:31:07;;;;;;;103.75;50.13;;;9.90;99.90;;;;;;5132318;27;20096;-86
2022/01/02 10:33:51;;;;;;;104.90;51.22;;;10.10;99.90;;;;;;5132395;27;20104;-86
2022/01/02 10:36:28;;;;;;;101.15;50.05;;;10.30;99.90;;;;;;5132268;27;20046;-87
2022/01/02 10:38:58;;;;;;;94.75;46.10;;;10.50;99.90;;;;;;5132093;27;20035;-87
2022/01/02 10:41:33;;;;;;;88.75;45.75;;;10.70;99.90;;;;;;5133885;27;20103;-87
2022/01/02 10:44:20;;;;;;;69.80;36.47;;;10.90;99.90;;;;;;5132336;27;20435;-87
2022/01/02 10:47:05;;;;;;;75.57;37.20;;;11.10;99.90;;;;;;5132154;27;20058;-87
2022/01/02 10:49:48;;;;;;;95.15;44.92;;;11.30;99.90;;;;;;5132440;27;20020;-87
2022/01/02 10:52:41;;;;;;;88.53;42.45;;;11.50;99.90;;;;;;5131897;27;20043;-87
2022/01/02 10:55:28;;;;;;;75.25;37.63;;;11.70;99.90;;;;;;5130633;28;20087;-87
2022/01/02 10:57:57;;;;;;;75.25;36.45;;;11.90;99.90;;;;;;5131747;27;20027;-87
2022/01/02 11:00:26;;;;;;;72.70;37.63;;;12.10;99.90;;;;;;5131866;27;20032;-87
2022/01/02 11:02:52;;;;;;;78.07;37.22;;;12.20;99.90;;;;;;5131476;27;20401;-87
2022/01/02 11:05:20;;;;;;;66.05;35.13;;;12.40;99.90;;;;;;5131972;27;20052;-87
2022/01/02 11:07:50;;;;;;;69.97;35.40;;;12.60;99.90;;;;;;5131613;27;20385;-87
2022/01/02 11:10:21;;;;;;;68.93;35.63;;;12.90;99.90;;;;;;5131707;27;20027;-87
2022/01/02 11:12:48;;;;;;;56.42;29.52;;;13.10;99.90;;;;;;5132283;28;20055;-87
2022/01/02 11:15:19;;;;;;;79.80;38.10;;;13.40;99.90;;;;;;5121021;27;20435;-87
2022/01/02 11:17:46;;;;;;;80.97;38.95;;;13.60;99.90;;;;;;5117810;28;20031;-87
2022/01/02 11:20:17;;;;;;;78.25;40.33;;;13.90;99.90;;;;;;5117706;28;20024;-87
2022/01/02 11:23:14;;;;;;;66.93;34.58;;;14.10;99.90;;;;;;5117603;28;20027;-87
2022/01/02 11:26:02;;;;;;;68.63;33.13;;;14.40;99.90;;;;;;5117621;28;20031;-87
2022/01/02 11:28:45;;;;;;;38.85;22.23;;;14.60;99.10;;;;;;5117704;28;20024;-88
2022/01/02 11:31:26;;;;;;;31.88;17.65;;;14.90;98.00;;;;;;5117612;28;20019;-88
2022/01/02 11:33:52;;;;;;;28.15;16.02;;;15.10;96.70;;;;;;5117642;28;20024;-87
2022/01/02 11:36:47;;;;;;;36.42;18.95;;;15.40;96.50;;;;;;5117371;28;20069;-87
2022/01/02 11:39:13;;;;;;;33.73;17.07;;;15.60;96.60;;;;;;5108884;28;20039;-87
2022/01/02 11:41:56;;;;;;;28.65;16.00;;;15.80;96.10;;;;;;5117529;28;20392;-87
2022/01/02 11:44:23;;;;;;;27.42;16.02;;;16.20;96.10;;;;;;5117254;28;20062;-88
2022/01/02 11:46:56;;;;;;;29.20;16.40;;;16.50;94.80;;;;;;5117149;28;20023;-87
2022/01/02 11:49:23;;;;;;;35.13;19.15;;;16.80;94.10;;;;;;5117197;28;20024;-87
2022/01/02 11:51:51;;;;;;;38.40;20.77;;;17.00;92.70;;;;;;5116977;28;20023;-87
2022/01/02 11:54:32;;;;;;;35.58;19.45;;;17.20;93.00;;;;;;5117004;28;20026;-87
2022/01/02 11:57:23;;;;;;;29.80;17.25;;;17.40;91.30;;;;;;5117387;28;20051;-87
2022/01/02 11:59:49;;;;;;;28.33;16.40;;;17.60;91.10;;;;;;5116702;28;20015;-88
2022/01/02 12:02:26;;;;;;;33.08;17.92;;;17.90;90.00;;;;;;5116787;28;20035;-88
2022/01/02 12:07:33;;;;;;;44.58;23.85;;;18.30;88.90;;;;;;5118466;28;20070;-88
2022/01/02 12:10:17;;;;;;;39.60;21.60;;;18.50;87.10;;;;;;5116602;28;20015;-87
2022/01/02 12:13:09;;;;;;;33.90;18.85;;;18.70;86.40;;;;;;5116724;28;20046;-88
2022/01/02 12:16:01;;;;;;;28.45;17.13;;;18.90;88.00;;;;;;5116780;28;20028;-87
2022/01/02 12:18:28;;;;;;;35.00;18.63;;;19.20;85.30;;;;;;5116547;28;20054;-88
2022/01/02 12:20:56;;;;;;;29.40;17.58;;;19.40;86.10;;;;;;5116423;28;20023;-88
2022/01/02 12:23:53;;;;;;;31.98;19.52;;;19.70;83.60;;;;;;5116640;28;20020;-88
2022/01/02 12:26:30;;;;;;;28.88;16.60;;;20.00;81.80;;;;;;5103800;28;20114;-88
2022/01/02 12:29:14;;;;;;;27.40;17.13;;;20.10;80.80;;;;;;5096203;28;20036;-87
2022/01/02 12:31:42;;;;;;;31.27;18.85;;;20.30;80.60;;;;;;5095975;28;20051;-87
2022/01/02 12:34:19;;;;;;;29.15;16.85;;;20.40;79.90;;;;;;5095989;28;20027;-88
2022/01/02 12:36:52;;;;;;;29.70;17.85;;;20.50;78.30;;;;;;5095824;28;20044;-88
2022/01/02 12:39:35;;;;;;;30.15;17.35;;;20.60;77.60;;;;;;5095678;28;20085;-88
2022/01/02 12:42:08;;;;;;;33.70;19.98;;;20.80;77.30;;;;;;5095804;28;20074;-87
2022/01/02 12:44:37;;;;;;;34.70;19.00;;;20.90;77.00;;;;;;5095707;28;20515;-87
2022/01/02 12:47:05;;;;;;;32.53;18.65;;;21.00;76.40;;;;;;5095553;28;20016;-88
2022/01/02 12:49:37;;;;;;;36.20;20.13;;;21.10;76.50;;;;;;5095745;28;20482;-88
2022/01/02 12:52:10;;;;;;;32.72;17.75;;;21.20;74.60;;;;;;5095440;28;20027;-88
2022/01/02 12:54:40;;;;;;;22.67;14.13;;;21.20;73.60;;;;;;5095293;28;20026;-88
2022/01/02 12:57:08;;;;;;;20.73;12.65;;;21.40;74.80;;;;;;5095176;28;20036;-88
2022/01/02 12:59:35;;;;;;;17.33;11.10;;;21.50;73.90;;;;;;5095307;28;20070;-88
2022/01/02 13:02:04;;;;;;;26.73;14.20;;;21.70;73.80;;;;;;5094729;28;20020;-88
2022/01/02 13:04:31;;;;;;;23.35;13.80;;;21.80;72.10;;;;;;5094349;28;20104;-88
2022/01/02 13:07:00;;;;;;;28.40;14.27;;;21.90;73.30;;;;;;5095434;28;20026;-88
2022/01/02 13:09:32;;;;;;;29.02;16.58;;;22.10;72.00;;;;;;5094831;28;20059;-88
2022/01/02 13:11:59;;;;;;;31.75;17.23;;;22.20;71.30;;;;;;5095221;28;20110;-88
2022/01/02 13:14:30;;;;;;;31.15;16.50;;;22.30;71.30;;;;;;5095039;28;20020;-88
2022/01/02 13:16:57;;;;;;;34.83;17.60;;;22.50;69.10;;;;;;5094648;28;20039;-88
2022/01/02 13:19:23;;;;;;;38.15;19.33;;;22.60;71.40;;;;;;5094955;28;20028;-87
2022/01/02 13:21:49;;;;;;;30.95;16.80;;;22.70;69.30;;;;;;5094905;28;20020;-87
2022/01/02 13:24:29;;;;;;;35.20;18.35;;;22.60;69.60;;;;;;5094838;28;20391;-88
2022/01/02 13:26:56;;;;;;;41.20;21.10;;;22.60;69.80;;;;;;5094770;28;20070;-88
2022/01/02 13:29:25;;;;;;;45.65;23.30;;;22.60;70.70;;;;;;5094961;28;20379;-88
2022/01/02 13:31:53;;;;;;;51.72;26.15;;;22.70;70.30;;;;;;5094677;28;20116;-88
2022/01/02 13:34:27;;;;;;;41.15;20.80;;;22.80;69.10;;;;;;5094672;28;20020;-88
2022/01/02 13:36:57;;;;;;;43.13;22.10;;;22.90;68.70;;;;;;5094480;28;20020;-88
2022/01/02 13:39:48;;;;;;;42.35;23.73;;;23.00;69.00;;;;;;5094481;28;20028;-88
2022/01/02 13:42:17;;;;;;;42.85;24.75;;;23.10;68.90;;;;;;5094577;28;20024;-88
2022/01/02 13:44:50;;;;;;;50.15;28.40;;;23.10;66.90;;;;;;5094593;28;20432;-88
2022/01/02 13:47:17;;;;;;;30.08;17.15;;;23.10;68.30;;;;;;5094516;28;20073;-87
2022/01/02 13:49:48;;;;;;;26.73;16.35;;;23.10;69.30;;;;;;5094398;28;20020;-88
2022/01/02 13:52:16;;;;;;;31.15;19.05;;;23.00;69.60;;;;;;5094452;28;20036;-88
2022/01/02 13:54:42;;;;;;;38.15;22.27;;;22.90;69.90;;;;;;5094283;28;20459;-88
2022/01/02 13:57:10;;;;;;;66.93;40.40;;;22.70;70.70;;;;;;5093850;28;20023;-88
2022/01/02 13:59:36;;;;;;;88.82;50.20;;;22.40;71.10;;;;;;5093878;28;20377;-88
2022/01/02 14:02:02;;;;;;;100.60;55.97;;;22.20;71.00;;;;;;5094151;28;20020;-88
2022/01/02 14:04:48;;;;;;;106.20;57.88;;;22.00;71.20;;;;;;5094412;28;20497;-88
2022/01/02 14:07:14;;;;;;;100.68;54.50;;;21.90;71.90;;;;;;5094146;28;20097;-88
2022/01/02 14:09:51;;;;;;;119.40;60.28;;;21.90;72.40;;;;;;5094667;28;20024;-88
2022/01/02 14:12:20;;;;;;;127.53;66.13;;;21.80;72.10;;;;;;5094211;28;20051;-88
2022/01/02 14:14:56;;;;;;;131.13;67.35;;;21.80;72.30;;;;;;5094713;28;20024;-88
2022/01/02 14:17:31;;;;;;;107.70;57.90;;;21.70;72.20;;;;;;5094350;28;20419;-88
2022/01/02 14:19:58;;;;;;;83.90;47.80;;;21.70;72.10;;;;;;5094161;28;20056;-88
2022/01/02 14:22:26;;;;;;;84.18;48.15;;;21.50;71.70;;;;;;5094120;28;20485;-88
2022/01/02 14:24:52;;;;;;;90.53;51.60;;;21.30;72.30;;;;;;5094124;28;20036;-88
2022/01/02 14:27:24;;;;;;;100.53;53.55;;;21.10;72.80;;;;;;5094127;28;20119;-88
2022/01/02 14:29:52;;;;;;;97.40;53.42;;;21.10;73.20;;;;;;5094263;28;20063;-88
2022/01/02 14:32:18;;;;;;;98.32;52.58;;;20.80;72.80;;;;;;5094059;28;20066;-88
2022/01/02 14:34:44;;;;;;;94.28;51.38;;;20.60;73.90;;;;;;5094379;28;20043;-88
2022/01/02 14:37:12;;;;;;;75.35;42.97;;;20.40;75.00;;;;;;5094584;28;20470;-88
2022/01/02 14:39:39;;;;;;;86.90;44.08;;;20.30;74.60;;;;;;5094290;28;20056;-88
2022/01/02 14:42:05;;;;;;;108.25;50.50;;;20.00;75.80;;;;;;5093996;28;20028;-88
2022/01/02 14:44:31;;;;;;;105.22;51.15;;;19.70;75.30;;;;;;5093972;28;20020;-87
2022/01/02 14:46:57;;;;;;;129.10;61.50;;;19.30;75.80;;;;;;5093094;28;20028;-88
2022/01/02 14:49:22;;;;;;;122.85;59.33;;;18.80;76.50;;;;;;5094831;28;20490;-88
2022/01/02 14:51:48;;;;;;;112.90;54.72;;;18.40;78.60;;;;;;5097823;28;20032;-88
2022/01/02 14:54:15;;;;;;;118.78;57.75;;;18.20;78.90;;;;;;5097458;28;20024;-88
2022/01/02 14:56:41;;;;;;;115.88;57.28;;;18.00;79.30;;;;;;5097636;28;20024;-88
2022/01/02 14:59:09;;;;;;;116.15;56.40;;;17.80;80.20;;;;;;5097555;28;20031;-87
2022/01/02 15:01:35;;;;;;;109.35;53.92;;;17.60;80.00;;;;;;5097617;28;20020;-88
2022/01/02 15:04:01;;;;;;;114.47;53.75;;;17.40;82.10;;;;;;5097931;28;20461;-87
2022/01/02 15:06:26;;;;;;;116.80;55.17;;;17.30;81.40;;;;;;5098346;28;20028;-87
2022/01/02 15:08:52;;;;;;;106.82;53.58;;;17.10;81.90;;;;;;5097383;28;20035;-88
2022/01/02 15:11:18;;;;;;;98.72;49.53;;;16.80;83.00;;;;;;5097701;28;20024;-88
2022/01/02 15:13:44;;;;;;;104.80;49.38;;;16.40;84.20;;;;;;5097558;28;20035;-88
2022/01/02 15:16:10;;;;;;;152.07;66.28;;;16.30;83.70;;;;;;5097223;28;20048;-87
2022/01/02 15:18:36;;;;;;;162.55;70.20;;;16.10;83.80;;;;;;5097208;28;20509;-88
2022/01/02 15:21:02;;;;;;;155.68;67.47;;;16.00;84.80;;;;;;5096527;28;20025;-88
2022/01/02 15:23:28;;;;;;;151.32;67.47;;;15.90;85.70;;;;;;5097133;28;20496;-88
2022/01/02 15:25:53;;;;;;;169.88;76.70;;;15.80;85.50;;;;;;5097105;28;20378;-87
2022/01/02 15:28:19;;;;;;;243.48;101.82;;;15.80;86.10;;;;;;5097173;28;20031;-87
2022/01/02 15:30:45;;;;;;;216.93;94.80;;;15.70;87.20;;;;;;5097014;28;20469;-88
2022/01/02 15:33:12;;;;;;;215.45;92.32;;;15.50;87.00;;;;;;5097026;28;20035;-87
2022/01/02 15:35:38;;;;;;;217.27;91.50;;;15.40;87.20;;;;;;5097050;28;20027;-88
2022/01/02 15:38:04;;;;;;;221.95;92.95;;;15.30;88.00;;;;;;5097067;28;20055;-88
2022/01/02 15:40:30;;;;;;;215.82;92.60;;;15.10;87.60;;;;;;5096869;28;20031;-87
2022/01/02 15:42:59;;;;;;;193.23;84.03;;;15.00;88.10;;;;;;5096707;28;20035;-87
2022/01/02 15:45:25;;;;;;;289.90;119.22;;;14.90;88.60;;;;;;5096803;28;20020;-87
2022/01/02 15:47:51;;;;;;;281.58;116.45;;;14.90;88.00;;;;;;5096777;28;20027;-88
2022/01/02 15:50:19;;;;;;;254.80;111.35;;;14.80;88.60;;;;;;5097077;28;20028;-87
2022/01/02 15:52:46;;;;;;;271.90;111.65;;;14.60;88.80;;;;;;5096725;28;20028;-87
2022/01/02 15:55:12;;;;;;;277.35;117.85;;;14.50;89.40;;;;;;5096247;28;20473;-87
2022/01/02 15:57:38;;;;;;;330.60;142.77;;;14.40;88.50;;;;;;5096622;28;20017;-87
2022/01/02 16:00:10;;;;;;;294.58;126.45;;;14.20;90.20;;;;;;5096592;28;20024;-87
2022/01/02 16:02:36;;;;;;;292.48;124.25;;;14.10;90.30;;;;;;5096343;28;20239;-87
2022/01/02 16:05:03;;;;;;;320.25;138.93;;;14.00;90.10;;;;;;5096613;28;20073;-87
2022/01/02 16:07:29;;;;;;;370.17;154.10;;;13.90;90.80;;;;;;5096501;28;20024;-87
2022/01/02 16:09:55;;;;;;;318.52;136.35;;;13.90;90.80;;;;;;5096516;28;20545;-87
2022/01/02 16:12:20;;;;;;;328.02;137.85;;;13.70;90.80;;;;;;5096267;28;20027;-87
2022/01/02 16:14:46;;;;;;;310.67;131.75;;;13.70;90.70;;;;;;5096201;28;20111;-87
2022/01/02 16:17:12;;;;;;;300.42;127.47;;;13.50;90.90;;;;;;5096299;28;20497;-87
2022/01/02 16:19:38;;;;;;;329.58;136.45;;;13.40;91.20;;;;;;5096179;28;20020;-87
2022/01/02 16:22:04;;;;;;;309.33;131.15;;;13.40;90.80;;;;;;5096454;28;20061;-87
2022/01/02 16:24:30;;;;;;;281.80;121.88;;;13.30;91.40;;;;;;5096099;28;20024;-88
2022/01/02 16:26:57;;;;;;;304.42;125.00;;;13.20;92.00;;;;;;5095902;28;20489;-87
2022/01/02 16:29:25;;;;;;;344.10;144.45;;;13.20;91.70;;;;;;5095248;28;20028;-87
2022/01/02 16:31:53;;;;;;;385.52;148.63;;;13.10;91.60;;;;;;5095742;28;20028;-87
2022/01/02 16:34:19;;;;;;;365.48;142.55;;;13.00;91.70;;;;;;5095799;28;20023;-87
2022/01/02 16:36:44;;;;;;;353.75;144.05;;;12.90;92.00;;;;;;5095866;28;20043;-87
2022/01/02 16:39:10;;;;;;;370.83;151.85;;;12.80;91.80;;;;;;5095855;28;20039;-87
2022/01/02 16:41:37;;;;;;;347.83;143.65;;;12.70;92.00;;;;;;5095599;28;20429;-87
2022/01/02 16:44:05;;;;;;;363.88;147.65;;;12.60;92.00;;;;;;5095890;28;20027;-87
2022/01/02 16:46:31;;;;;;;314.75;131.95;;;12.50;92.40;;;;;;5095664;28;20024;-87
2022/01/02 16:48:57;;;;;;;322.30;132.85;;;12.40;92.90;;;;;;5095804;28;20053;-87
2022/01/02 16:51:23;;;;;;;312.73;129.77;;;12.30;92.50;;;;;;5095590;28;20020;-88
2022/01/02 16:53:49;;;;;;;300.85;124.30;;;12.30;92.90;;;;;;5095302;28;20023;-87
2022/01/02 16:56:15;;;;;;;343.02;132.15;;;12.30;93.00;;;;;;5095561;28;20020;-87
2022/01/02 16:58:45;;;;;;;372.73;151.48;;;12.30;92.90;;;;;;5095344;28;20008;-87
2022/01/02 17:01:12;;;;;;;370.40;144.63;;;12.30;92.50;;;;;;5095350;28;20081;-87
2022/01/02 17:03:39;;;;;;;378.13;147.85;;;12.20;93.00;;;;;;5095143;28;20052;-88
2022/01/02 17:06:05;;;;;;;369.60;141.95;;;12.10;92.90;;;;;;5094719;28;20424;-87
2022/01/02 17:08:31;;;;;;;309.80;123.00;;;12.00;93.10;;;;;;5095413;28;20028;-87
2022/01/02 17:10:57;;;;;;;329.55;134.90;;;12.00;93.50;;;;;;5095217;28;20048;-87
2022/01/02 17:13:23;;;;;;;380.40;143.13;;;12.00;93.40;;;;;;5095000;28;20028;-87
2022/01/02 17:15:51;;;;;;;351.67;132.73;;;12.00;93.00;;;;;;5095280;28;20020;-87
2022/01/02 17:18:18;;;;;;;406.70;148.88;;;11.90;92.90;;;;;;5095500;28;20030;-87
2022/01/02 17:20:44;;;;;;;405.25;150.77;;;11.80;92.90;;;;;;5094881;28;20046;-87
2022/01/02 17:23:11;;;;;;;347.73;131.40;;;11.70;93.20;;;;;;5094846;28;20032;-87
2022/01/02 17:25:37;;;;;;;355.23;137.80;;;11.60;93.40;;;;;;5095264;28;20024;-87
2022/01/02 17:28:03;;;;;;;377.23;142.80;;;11.50;93.50;;;;;;5097947;28;20027;-87
2022/01/02 17:30:29;;;;;;;352.98;137.77;;;11.40;93.00;;;;;;5094770;28;20420;-87
2022/01/02 17:32:56;;;;;;;322.73;128.82;;;11.20;93.30;;;;;;5094638;28;20107;-87
2022/01/02 17:35:22;;;;;;;334.23;127.15;;;11.10;93.50;;;;;;5094975;28;20111;-87
2022/01/02 17:37:48;;;;;;;291.20;116.80;;;11.00;93.60;;;;;;5094588;28;20123;-86
2022/01/02 17:40:17;;;;;;;271.02;107.10;;;10.90;94.50;;;;;;5093858;28;20016;-87
2022/01/02 17:42:48;;;;;;;266.63;100.25;;;10.90;94.70;;;;;;5094644;28;20021;-87
2022/01/02 17:45:14;;;;;;;298.90;115.70;;;10.90;94.50;;;;;;5094637;28;20031;-87
2022/01/02 17:47:41;;;;;;;333.25;134.48;;;10.80;94.10;;;;;;5094689;28;20024;-87
2022/01/02 17:50:10;;;;;;;476.27;204.45;;;10.80;94.50;;;;;;5094744;28;20020;-87
2022/01/02 17:52:37;;;;;;;460.73;190.65;;;10.60;94.50;;;;;;5094053;28;20050;-87
2022/01/02 17:55:03;;;;;;;421.83;169.98;;;10.20;95.60;;;;;;5094102;28;20043;-87
2022/01/02 17:57:33;;;;;;;419.40;173.55;;;10.20;95.50;;;;;;5094126;28;20020;-87
2022/01/02 17:59:59;;;;;;;409.55;157.68;;;10.20;95.40;;;;;;5094406;28;20058;-87
2022/01/02 18:02:25;;;;;;;387.67;148.55;;;10.30;95.60;;;;;;5093938;28;20048;-87
2022/01/02 18:04:52;;;;;;;431.88;176.48;;;10.30;95.60;;;;;;5094163;28;20024;-87
2022/01/02 18:07:22;;;;;;;366.73;138.30;;;10.30;94.80;;;;;;5094384;28;20111;-87
2022/01/02 18:09:52;;;;;;;325.83;126.30;;;10.20;94.80;;;;;;5095287;28;20024;-87
2022/01/02 18:12:19;;;;;;;347.88;130.88;;;10.10;94.90;;;;;;5095449;28;20044;-87
2022/01/02 18:14:47;;;;;;;339.20;133.98;;;9.90;95.20;;;;;;5094476;28;20020;-87
2022/01/02 18:17:13;;;;;;;318.40;127.43;;;9.70;95.70;;;;;;5094099;28;20031;-87
2022/01/02 18:19:38;;;;;;;325.50;127.03;;;9.50;95.90;;;;;;5093539;28;20016;-87
2022/01/02 18:22:05;;;;;;;296.08;117.90;;;9.40;96.30;;;;;;5094209;28;20055;-87
2022/01/02 18:24:32;;;;;;;277.33;110.43;;;9.20;96.90;;;;;;5095259;28;20028;-87
2022/01/02 18:26:59;;;;;;;260.40;100.65;;;9.20;97.20;;;;;;5099354;28;20112;-87
2022/01/02 18:29:25;;;;;;;237.00;97.80;;;9.30;96.70;;;;;;5098780;28;20423;-87
2022/01/02 18:31:52;;;;;;;226.48;95.38;;;9.30;96.90;;;;;;5097929;28;20428;-87
2022/01/02 18:34:18;;;;;;;231.38;92.55;;;9.40;97.10;;;;;;5097804;28;20024;-87
2022/01/02 18:36:44;;;;;;;206.02;83.95;;;9.50;96.90;;;;;;5097442;28;20055;-87
2022/01/02 18:39:11;;;;;;;216.68;89.65;;;9.50;97.10;;;;;;5097935;28;20114;-87